createdAt,value
2022-10-03T00:00:32.041Z,7.47
2022-10-03T00:03:20.996Z,7.38
2022-10-03T00:05:56.859Z,7.60
2022-10-03T00:08:30.570Z,7.28
2022-10-03T00:11:02.946Z,3.92
2022-10-03T00:13:35.277Z,6.50
2022-10-03T00:16:06.155Z,5.20
2022-10-03T00:18:38.243Z,5.97
2022-10-03T00:21:16.402Z,7.45
2022-10-03T00:23:48.618Z,8.43
2022-10-03T00:26:30.743Z,4.43
2022-10-03T00:29:04.262Z,5.05
2022-10-03T00:31:39.238Z,10.90
2022-10-03T00:34:10.481Z,8.35
2022-10-03T00:36:43.432Z,5.88
2022-10-03T00:39:26.421Z,6.60
2022-10-03T00:42:04.864Z,4.43
2022-10-03T00:44:44.172Z,5.78
2022-10-03T00:47:22.256Z,6.45
2022-10-03T00:50:05.407Z,7.82
2022-10-03T00:52:48.176Z,6.25
2022-10-03T00:55:19.173Z,8.23
2022-10-03T00:58:01.594Z,5.40
2022-10-03T01:00:31.848Z,7.70
2022-10-03T01:03:09.537Z,4.55
2022-10-03T01:05:45.794Z,11.32
2022-10-03T01:08:30.462Z,7.72
2022-10-03T01:11:03.565Z,5.07
2022-10-03T01:13:36.209Z,9.23
2022-10-03T01:16:10.818Z,6.25
2022-10-03T01:18:46.045Z,8.52
2022-10-03T01:21:18.703Z,9.23
2022-10-03T01:24:03.382Z,5.40
2022-10-03T01:26:39.058Z,8.82
2022-10-03T01:29:29.421Z,6.05
2022-10-03T01:32:00.997Z,6.88
2022-10-03T01:34:31.154Z,8.48
2022-10-03T01:37:06.151Z,5.50
2022-10-03T01:39:37.792Z,6.70
2022-10-03T01:42:09.883Z,7.75
2022-10-03T01:44:54.053Z,8.07
2022-10-03T01:47:26.142Z,9.85
2022-10-03T01:49:57.786Z,6.43
2022-10-03T01:52:28.853Z,8.77
2022-10-03T01:54:59.870Z,7.43
2022-10-03T01:57:30.293Z,9.13
2022-10-03T02:00:04.625Z,6.97
2022-10-03T02:02:43.628Z,9.05
2022-10-03T02:05:13.780Z,8.93
2022-10-03T02:07:44.123Z,6.68
2022-10-03T02:10:19.472Z,7.40
2022-10-03T02:12:50.998Z,7.88
2022-10-03T02:15:22.569Z,9.27
2022-10-03T02:17:54.269Z,5.50
2022-10-03T02:20:25.650Z,7.43
2022-10-03T02:22:54.829Z,9.77
2022-10-03T02:25:25.503Z,9.13
2022-10-03T02:28:08.793Z,7.30
2022-10-03T02:30:43.414Z,6.70
2022-10-03T02:33:33.154Z,8.95
2022-10-03T02:36:19.246Z,8.48
2022-10-03T02:39:01.689Z,10.25
2022-10-03T02:41:44.078Z,7.65
2022-10-03T02:44:21.061Z,6.53
2022-10-03T02:47:14.372Z,7.75
2022-10-03T02:49:56.271Z,8.15
2022-10-03T02:52:39.137Z,6.20
2022-10-03T02:55:14.685Z,5.57
2022-10-03T02:58:07.385Z,7.25
2022-10-03T03:00:54.782Z,9.48
2022-10-03T03:03:35.100Z,9.32
2022-10-03T03:06:29.231Z,9.00
2022-10-03T03:09:15.322Z,12.73
2022-10-03T03:11:56.312Z,6.70
2022-10-03T03:14:40.305Z,6.53
2022-10-03T03:17:12.830Z,8.38
2022-10-03T03:20:06.332Z,6.32
2022-10-03T03:22:37.369Z,6.22
2022-10-03T03:25:19.312Z,5.60
2022-10-03T03:27:50.856Z,7.80
2022-10-03T03:30:19.956Z,5.53
2022-10-03T03:32:56.894Z,8.98
2022-10-03T03:35:32.333Z,5.78
2022-10-03T03:38:04.584Z,8.07
2022-10-03T03:40:36.258Z,5.80
2022-10-03T03:43:11.310Z,6.13
2022-10-03T03:45:45.789Z,7.65
2022-10-03T03:48:38.586Z,8.73
2022-10-03T03:51:18.065Z,5.57
2022-10-03T03:53:51.686Z,5.22
2022-10-03T03:56:26.544Z,7.60
2022-10-03T03:59:01.216Z,5.55
2022-10-03T04:01:50.345Z,7.30
2022-10-03T04:04:28.762Z,5.85
2022-10-03T04:07:03.612Z,8.88
2022-10-03T04:09:40.145Z,9.13
2022-10-03T04:12:10.776Z,9.35
2022-10-03T04:14:51.083Z,7.00
2022-10-03T04:17:46.062Z,6.90
2022-10-03T04:20:18.633Z,5.88
2022-10-03T04:23:00.470Z,8.57
2022-10-03T04:25:38.416Z,7.20
2022-10-03T04:28:14.952Z,5.93
2022-10-03T04:30:51.502Z,5.25
2022-10-03T04:33:26.108Z,8.13
2022-10-03T04:36:11.681Z,7.32
2022-10-03T04:38:45.137Z,9.48
2022-10-03T04:41:17.976Z,5.35
2022-10-03T04:43:52.504Z,8.93
2022-10-03T04:46:25.124Z,6.72
2022-10-03T04:48:57.336Z,7.88
2022-10-03T04:51:32.780Z,5.13
2022-10-03T04:54:04.849Z,5.22
2022-10-03T04:56:40.045Z,5.85
2022-10-03T04:59:13.523Z,7.55
2022-10-03T05:01:44.667Z,10.48
2022-10-03T05:04:20.985Z,6.57
2022-10-03T05:06:55.889Z,5.55
2022-10-03T05:09:32.736Z,8.32
2022-10-03T05:12:06.258Z,8.73
2022-10-03T05:14:48.438Z,6.30
2022-10-03T05:17:20.666Z,8.50
2022-10-03T05:19:52.742Z,7.38
2022-10-03T05:22:27.402Z,9.93
2022-10-03T05:25:01.969Z,8.57
2022-10-03T05:27:35.598Z,11.93
2022-10-03T05:30:05.689Z,12.00
2022-10-03T05:32:35.285Z,8.50
2022-10-03T05:35:13.593Z,7.70
2022-10-03T05:38:08.317Z,7.07
2022-10-03T05:40:38.636Z,9.45
2022-10-03T05:43:13.718Z,11.27
2022-10-03T05:45:48.873Z,9.77
2022-10-03T05:48:24.971Z,6.20
2022-10-03T05:51:13.735Z,8.55
2022-10-03T05:54:05.517Z,11.73
2022-10-03T05:57:03.271Z,10.80
2022-10-03T05:59:59.216Z,8.43
2022-10-03T06:02:44.981Z,11.88
2022-10-03T06:05:17.077Z,11.52
2022-10-03T06:07:49.570Z,9.63
2022-10-03T06:10:35.118Z,13.32
2022-10-03T06:13:12.549Z,11.13
2022-10-03T06:15:46.497Z,12.77
2022-10-03T06:18:26.177Z,10.50
2022-10-03T06:21:09.664Z,9.30
2022-10-03T06:23:48.841Z,10.57
2022-10-03T06:26:28.871Z,6.93
2022-10-03T06:29:22.462Z,9.35
2022-10-03T06:32:05.287Z,8.20
2022-10-03T06:34:51.661Z,8.05
2022-10-03T06:37:34.305Z,10.45
2022-10-03T06:40:24.417Z,7.88
2022-10-03T06:43:02.450Z,13.80
2022-10-03T06:45:56.442Z,10.88
2022-10-03T06:48:40.920Z,10.20
2022-10-03T06:51:30.751Z,12.13
2022-10-03T06:54:17.785Z,9.73
2022-10-03T06:57:15.570Z,9.23
2022-10-03T06:59:53.277Z,10.90
2022-10-03T07:02:41.679Z,13.40
2022-10-03T07:05:38.626Z,9.15
2022-10-03T07:08:29.771Z,10.45
2022-10-03T07:11:06.988Z,11.98
2022-10-03T07:13:50.724Z,10.82
2022-10-03T07:16:36.626Z,9.73
2022-10-03T07:19:14.901Z,9.32
2022-10-03T07:21:52.837Z,10.77
2022-10-03T07:24:43.392Z,8.43
2022-10-03T07:27:27.580Z,9.65
2022-10-03T07:30:04.615Z,13.48
2022-10-03T07:32:45.137Z,16.42
2022-10-03T07:35:50.435Z,8.15
2022-10-03T07:38:54.102Z,12.00
2022-10-03T07:41:25.555Z,10.07
2022-10-03T07:44:07.979Z,9.13
2022-10-03T07:46:44.562Z,13.77
2022-10-03T07:49:26.751Z,8.35
2022-10-03T07:52:04.875Z,14.85
2022-10-03T07:54:44.685Z,9.88
2022-10-03T07:57:35.293Z,15.50
2022-10-03T08:00:16.652Z,13.85
2022-10-03T08:03:03.015Z,8.75
2022-10-03T08:05:41.635Z,14.77
2022-10-03T08:08:21.613Z,10.23
2022-10-03T08:11:06.625Z,10.77
2022-10-03T08:13:42.873Z,6.75
2022-10-03T08:16:19.960Z,9.00
2022-10-03T08:19:10.482Z,8.93
2022-10-03T08:21:46.843Z,7.50
2022-10-03T08:24:28.181Z,16.92
2022-10-03T08:27:07.621Z,10.98
2022-10-03T08:29:52.991Z,8.43
2022-10-03T08:32:46.392Z,8.85
2022-10-03T08:35:39.884Z,7.10
2022-10-03T08:38:28.088Z,7.70
2022-10-03T08:41:15.530Z,9.85
2022-10-03T08:44:03.823Z,6.07
2022-10-03T08:46:51.141Z,9.45
2022-10-03T08:49:29.624Z,8.27
2022-10-03T08:52:02.047Z,11.30
2022-10-03T08:54:42.511Z,8.68
2022-10-03T08:57:24.796Z,8.52
2022-10-03T09:00:03.258Z,7.03
2022-10-03T09:03:12.603Z,7.70
2022-10-03T09:05:58.801Z,10.40
2022-10-03T09:08:53.607Z,4.00
2022-10-03T09:11:32.069Z,9.63
2022-10-03T09:14:21.104Z,10.63
2022-10-03T09:16:53.489Z,4.38
2022-10-03T09:19:38.721Z,9.50
2022-10-03T09:22:23.659Z,7.03
2022-10-03T09:25:11.932Z,3.58
2022-10-03T09:27:58.845Z,6.32
2022-10-03T09:30:33.567Z,7.50
2022-10-03T09:33:23.209Z,9.43
2022-10-03T09:39:56.826Z,7.55
2022-10-03T09:42:54.361Z,8.02
2022-10-03T09:49:28.234Z,4.65
2022-10-03T09:52:06.768Z,7.97
2022-10-03T09:54:54.227Z,13.82
2022-10-03T09:57:38.906Z,4.90
2022-10-03T10:00:14.553Z,6.68
2022-10-03T10:02:52.205Z,6.72
2022-10-03T10:05:32.771Z,3.92
2022-10-03T10:08:09.543Z,6.97
2022-10-03T10:10:59.266Z,6.13
2022-10-03T10:14:12.496Z,5.25
2022-10-03T10:16:50.748Z,4.85
2022-10-03T10:19:33.627Z,4.40
2022-10-03T10:22:08.502Z,3.85
2022-10-03T10:25:04.106Z,6.63
2022-10-03T10:27:49.721Z,5.63
2022-10-03T10:30:29.753Z,3.80
2022-10-03T10:33:15.862Z,7.63
2022-10-03T10:35:57.743Z,6.28
2022-10-03T10:38:29.349Z,4.70
2022-10-03T10:41:11.821Z,4.60
2022-10-03T10:43:54.663Z,5.70
2022-10-03T10:46:40.457Z,7.13
2022-10-03T10:49:21.570Z,1.83
2022-10-03T10:52:11.820Z,5.97
2022-10-03T10:54:55.925Z,5.30
2022-10-03T10:57:27.436Z,7.82
2022-10-03T11:00:09.181Z,3.88
2022-10-03T11:03:03.830Z,6.53
2022-10-03T11:05:58.275Z,4.00
2022-10-03T11:08:50.997Z,5.60
2022-10-03T11:11:35.183Z,3.60
2022-10-03T11:14:11.722Z,6.18
2022-10-03T11:16:55.417Z,3.85
2022-10-03T11:19:45.008Z,5.20
2022-10-03T11:22:33.577Z,1.45
2022-10-03T11:25:16.065Z,6.38
2022-10-03T11:28:18.836Z,5.60
2022-10-03T11:31:12.939Z,3.22
2022-10-03T11:34:04.506Z,2.65
2022-10-03T11:36:56.138Z,5.57
2022-10-03T11:39:27.638Z,2.83
2022-10-03T11:42:01.658Z,5.32
2022-10-03T11:44:31.550Z,2.78
2022-10-03T11:47:21.109Z,4.05
2022-10-03T11:50:07.136Z,5.95
2022-10-03T11:52:39.043Z,3.40
2022-10-03T11:55:15.890Z,2.63
2022-10-03T11:57:44.905Z,8.23
2022-10-03T12:00:15.834Z,0.80
2022-10-03T12:02:51.875Z,2.78
2022-10-03T12:05:23.378Z,0.60
2022-10-03T12:08:19.522Z,3.33
2022-10-03T12:10:57.749Z,3.28
2022-10-03T12:13:31.518Z,3.72
2022-10-03T12:16:02.320Z,5.03
2022-10-03T12:18:34.624Z,4.95
2022-10-03T12:21:10.636Z,1.95
2022-10-03T12:23:50.088Z,4.97
2022-10-03T12:26:19.247Z,4.93
2022-10-03T12:28:50.322Z,6.03
2022-10-03T12:31:22.107Z,0.95
2022-10-03T12:33:52.938Z,0.30
2022-10-03T12:36:23.225Z,0.63
2022-10-03T12:38:57.267Z,0.10
2022-10-03T12:41:27.037Z,4.93
2022-10-03T12:44:05.046Z,8.05
2022-10-03T12:46:39.088Z,2.13
2022-10-03T12:49:08.553Z,3.60
2022-10-03T12:51:45.546Z,0.47
2022-10-03T12:54:18.119Z,0.50
2022-10-03T12:56:48.642Z,4.55
2022-10-03T12:59:29.180Z,3.47
2022-10-03T13:02:12.773Z,0.10
2022-10-03T13:04:43.276Z,5.38
2022-10-03T13:07:18.669Z,0.20
2022-10-03T13:09:58.167Z,4.50
2022-10-03T13:12:34.217Z,7.72
2022-10-03T13:15:31.849Z,1.25
2022-10-03T13:18:04.024Z,5.53
2022-10-03T13:20:34.544Z,1.80
2022-10-03T13:23:07.670Z,1.83
2022-10-03T13:25:37.293Z,4.25
2022-10-03T13:28:08.844Z,7.00
2022-10-03T13:30:41.898Z,2.65
2022-10-03T13:33:15.454Z,4.18
2022-10-03T13:36:01.661Z,0.65
2022-10-03T13:38:50.334Z,6.35
2022-10-03T13:41:25.697Z,2.67
2022-10-03T13:43:57.871Z,2.08
2022-10-03T13:46:29.142Z,2.30
2022-10-03T13:49:02.208Z,0.10
2022-10-03T13:51:36.000Z,0.10
2022-10-03T13:54:06.906Z,0.10
2022-10-03T13:56:39.768Z,9.48
2022-10-03T13:59:14.541Z,0.20
2022-10-03T14:01:48.535Z,0.40
2022-10-03T14:04:25.433Z,0.55
2022-10-03T14:06:56.123Z,1.33
2022-10-03T14:09:36.310Z,1.73
2022-10-03T14:12:08.452Z,5.15
2022-10-03T14:14:44.150Z,2.25
2022-10-03T14:17:14.618Z,2.67
2022-10-03T14:19:50.503Z,3.42
2022-10-03T14:22:31.625Z,5.38
2022-10-03T14:25:06.046Z,4.85
2022-10-03T14:27:51.378Z,3.25
2022-10-03T14:30:21.554Z,2.47
2022-10-03T14:32:53.328Z,5.57
2022-10-03T14:35:29.147Z,6.32
2022-10-03T14:37:58.251Z,2.53
2022-10-03T14:40:30.350Z,6.50
2022-10-03T14:43:02.126Z,1.85
2022-10-03T14:45:31.661Z,2.15
2022-10-03T14:48:05.473Z,3.78
2022-10-03T14:50:34.725Z,7.53
2022-10-03T14:53:05.015Z,4.28
2022-10-03T14:55:34.380Z,2.83
2022-10-03T14:58:13.158Z,6.30
2022-10-03T15:00:44.094Z,2.65
2022-10-03T15:03:22.554Z,3.28
2022-10-03T15:05:59.310Z,6.38
2022-10-03T15:08:30.802Z,1.58
2022-10-03T15:10:59.367Z,3.40
2022-10-03T15:13:28.936Z,1.42
2022-10-03T15:15:57.195Z,3.58
2022-10-03T15:18:25.539Z,1.33
2022-10-03T15:20:54.433Z,2.08
2022-10-03T15:23:26.332Z,5.88
2022-10-03T15:25:54.720Z,8.95
2022-10-03T15:28:23.641Z,1.13
2022-10-03T15:30:52.459Z,1.45
2022-10-03T15:33:22.693Z,0.28
2022-10-03T15:35:53.633Z,0.60
2022-10-03T15:38:27.297Z,0.20
2022-10-03T15:41:07.083Z,0.17
2022-10-03T15:43:36.946Z,0.60
2022-10-03T15:46:07.277Z,1.27
2022-10-03T15:48:35.027Z,3.90
2022-10-03T15:51:02.933Z,2.05
2022-10-03T15:53:37.161Z,0.10
2022-10-03T15:56:10.319Z,0.13
2022-10-03T15:58:39.949Z,7.43
2022-10-03T16:01:09.768Z,0.82
2022-10-03T16:03:41.851Z,0.45
2022-10-03T16:06:11.086Z,3.22
2022-10-03T16:08:46.024Z,0.25
2022-10-03T16:11:15.550Z,0.30
2022-10-03T16:13:44.770Z,1.27
2022-10-03T16:16:15.254Z,0.55
2022-10-03T16:18:49.194Z,0.52
2022-10-03T16:21:31.333Z,1.27
2022-10-03T16:24:02.246Z,0.73
2022-10-03T16:26:31.746Z,0.77
2022-10-03T16:29:03.278Z,1.45
2022-10-03T16:31:34.985Z,0.70
2022-10-03T16:34:04.384Z,0.77
2022-10-03T16:36:33.011Z,0.50
2022-10-03T16:39:02.591Z,0.40
2022-10-03T16:41:31.945Z,1.23
2022-10-03T16:44:00.586Z,1.80
2022-10-03T16:46:29.985Z,0.70
2022-10-03T16:49:16.321Z,3.50
2022-10-03T16:51:46.450Z,2.53
2022-10-03T16:54:16.658Z,2.97
2022-10-03T16:56:45.486Z,3.20
2022-10-03T16:59:14.463Z,1.83
2022-10-03T17:01:46.605Z,2.35
2022-10-03T17:04:17.309Z,1.65
2022-10-03T17:06:47.049Z,1.98
2022-10-03T17:09:23.261Z,7.88
2022-10-03T17:11:52.644Z,1.45
2022-10-03T17:14:21.342Z,0.65
2022-10-03T17:16:52.099Z,2.92
2022-10-03T17:19:22.022Z,1.75
2022-10-03T17:21:54.738Z,3.38
2022-10-03T17:24:27.274Z,2.35
2022-10-03T17:26:56.306Z,7.13
2022-10-03T17:29:29.229Z,3.40
2022-10-03T17:32:01.438Z,5.00
2022-10-03T17:34:31.321Z,5.47
2022-10-03T17:37:19.556Z,3.17
2022-10-03T17:39:51.496Z,2.75
2022-10-03T17:42:31.334Z,5.65
2022-10-03T17:45:06.725Z,2.17
2022-10-03T17:47:40.292Z,0.65
2022-10-03T17:50:08.949Z,0.75
2022-10-03T17:52:40.945Z,1.00
2022-10-03T17:55:13.943Z,2.53
2022-10-03T17:57:45.100Z,2.85
2022-10-03T18:00:18.184Z,2.03
2022-10-03T18:02:47.518Z,0.60
2022-10-03T18:05:17.771Z,1.25
2022-10-03T18:07:45.748Z,1.25
2022-10-03T18:10:20.705Z,0.35
2022-10-03T18:12:49.152Z,5.45
2022-10-03T18:15:23.307Z,4.57
2022-10-03T18:17:59.730Z,5.45
2022-10-03T18:20:34.242Z,6.28
2022-10-03T18:23:04.082Z,4.13
2022-10-03T18:26:18.162Z,4.10
2022-10-03T18:28:42.724Z,0.73
2022-10-03T18:31:12.996Z,0.70
2022-10-03T18:33:51.075Z,2.33
2022-10-03T18:36:20.248Z,0.45
2022-10-03T18:38:48.683Z,0.85
2022-10-03T18:41:19.166Z,0.47
2022-10-03T18:43:47.700Z,0.63
2022-10-03T18:46:19.086Z,0.65
2022-10-03T18:49:09.174Z,1.17
2022-10-03T18:51:40.462Z,1.60
2022-10-03T18:54:15.895Z,3.85
2022-10-03T18:56:46.843Z,0.45
2022-10-03T18:59:16.471Z,0.77
2022-10-03T19:01:46.316Z,8.45
2022-10-03T19:04:15.807Z,5.55
2022-10-03T19:06:45.700Z,5.70
2022-10-03T19:09:16.048Z,9.93
2022-10-03T19:11:48.691Z,11.68
2022-10-03T19:14:19.284Z,7.15
2022-10-03T19:16:57.021Z,11.63
2022-10-03T19:19:26.998Z,14.27
2022-10-03T19:21:54.904Z,10.90
2022-10-03T19:24:53.373Z,12.15
2022-10-03T19:27:18.533Z,7.93
2022-10-03T19:29:47.996Z,9.38
2022-10-03T19:32:19.432Z,7.55
2022-10-03T19:34:48.064Z,6.88
2022-10-03T19:37:17.496Z,10.55
2022-10-03T19:39:45.446Z,13.25
2022-10-03T19:42:22.377Z,8.77
2022-10-03T19:44:50.259Z,11.68
2022-10-03T19:47:19.664Z,9.20
2022-10-03T19:49:53.964Z,10.02
2022-10-03T19:52:31.125Z,10.38
2022-10-03T19:55:03.635Z,9.27
2022-10-03T19:57:34.629Z,8.90
2022-10-03T20:00:04.923Z,10.18
2022-10-03T20:02:39.813Z,10.30
2022-10-03T20:05:08.033Z,10.60
2022-10-03T20:07:41.089Z,9.75
2022-10-03T20:10:17.206Z,9.98
2022-10-03T20:12:49.622Z,10.82
2022-10-03T20:15:19.487Z,10.00
2022-10-03T20:17:47.385Z,11.07
2022-10-03T20:20:19.040Z,12.50
2022-10-03T20:22:47.009Z,13.93
2022-10-03T20:25:22.480Z,16.65
2022-10-03T20:27:53.241Z,16.38
2022-10-03T20:30:24.556Z,11.63
2022-10-03T20:32:52.739Z,13.43
2022-10-03T20:35:23.076Z,10.27
2022-10-03T20:37:54.016Z,15.25
2022-10-03T20:40:31.288Z,14.02
2022-10-03T20:43:08.023Z,15.45
2022-10-03T20:45:38.285Z,11.18
2022-10-03T20:48:07.640Z,11.30
2022-10-03T20:50:40.436Z,10.52
2022-10-03T20:53:16.651Z,9.35
2022-10-03T20:55:46.218Z,7.28
2022-10-03T20:58:19.181Z,8.57
2022-10-03T21:00:49.346Z,12.82
2022-10-03T21:03:23.809Z,10.52
2022-10-03T21:05:52.826Z,8.60
2022-10-03T21:08:22.214Z,7.22
2022-10-03T21:10:54.661Z,10.63
2022-10-03T21:13:28.273Z,9.52
2022-10-03T21:15:57.922Z,12.73
2022-10-03T21:18:26.657Z,9.75
2022-10-03T21:21:02.028Z,12.63
2022-10-03T21:23:30.264Z,14.43
2022-10-03T21:26:01.229Z,11.73
2022-10-03T21:28:31.205Z,8.13
2022-10-03T21:31:08.957Z,7.95
2022-10-03T21:33:39.361Z,7.65
2022-10-03T21:36:09.928Z,10.85
2022-10-03T21:38:39.495Z,11.07
2022-10-03T21:41:24.782Z,8.70
2022-10-03T21:43:55.182Z,12.48
2022-10-03T21:46:28.177Z,11.48
2022-10-03T21:49:10.707Z,12.52
2022-10-03T21:51:41.623Z,10.68
2022-10-03T21:54:23.401Z,12.93
2022-10-03T21:56:56.931Z,11.18
2022-10-03T21:59:34.806Z,11.10
2022-10-03T22:02:05.537Z,10.55
2022-10-03T22:04:36.587Z,8.75
2022-10-03T22:07:08.142Z,7.70
2022-10-03T22:09:35.786Z,11.57
2022-10-03T22:12:05.622Z,10.45
2022-10-03T22:14:42.233Z,11.13
2022-10-03T22:17:16.093Z,10.82
2022-10-03T22:19:46.116Z,12.55
2022-10-03T22:22:26.080Z,11.68
2022-10-03T22:25:01.004Z,8.95
2022-10-03T22:27:30.262Z,10.00
2022-10-03T22:30:03.865Z,9.50
2022-10-03T22:32:35.201Z,11.18
2022-10-03T22:35:08.206Z,11.63
2022-10-03T22:37:35.834Z,11.52
2022-10-03T22:40:04.056Z,10.65
2022-10-03T22:42:35.949Z,12.20
2022-10-03T22:45:06.627Z,9.77
2022-10-03T22:47:35.691Z,11.32
2022-10-03T22:50:04.422Z,10.85
2022-10-03T22:52:33.654Z,11.48
2022-10-03T22:55:01.613Z,9.95
2022-10-03T22:57:32.637Z,9.45
2022-10-03T23:00:05.647Z,9.15
2022-10-03T23:02:36.100Z,11.23
2022-10-03T23:05:05.113Z,8.75
2022-10-03T23:07:50.711Z,11.57
2022-10-03T23:10:24.283Z,10.15
2022-10-03T23:12:57.236Z,8.57
2022-10-03T23:15:25.451Z,9.80
2022-10-03T23:18:04.726Z,11.32
2022-10-03T23:20:45.043Z,9.02
2022-10-03T23:23:14.936Z,10.55
2022-10-03T23:25:47.428Z,8.20
2022-10-03T23:28:18.949Z,9.25
2022-10-03T23:30:47.829Z,8.18
2022-10-03T23:33:18.322Z,7.40
2022-10-03T23:35:47.703Z,8.55
2022-10-03T23:38:48.216Z,7.90
2022-10-03T23:41:16.890Z,8.95
2022-10-03T23:43:49.983Z,7.90
2022-10-03T23:46:19.455Z,6.53
2022-10-03T23:48:50.108Z,8.50
2022-10-03T23:51:19.269Z,10.15
2022-10-03T23:53:49.205Z,9.30
2022-10-03T23:56:25.345Z,10.07
2022-10-03T23:58:56.193Z,11.35
